sensor_id;sensor_type;location;lat;lon;timestamp;pressure;altitude;pressure_sealevel;temperature;humidity
21826;BME280;11075;47.944;11.776;2024-03-02T00:01:36;93786.41;;;0.73;81.13
21826;BME280;11075;47.944;11.776;2024-03-02T00:04:04;93790.91;;;0.16;87.87
21826;BME280;11075;47.944;11.776;2024-03-02T00:06:33;93782.19;;;0.72;82.41
21826;BME280;11075;47.944;11.776;2024-03-02T00:09:01;93777.97;;;0.66;81.61
21826;BME280;11075;47.944;11.776;2024-03-02T00:11:28;93778.06;;;1.12;79.70
21826;BME280;11075;47.944;11.776;2024-03-02T00:13:55;93778.59;;;1.19;77.23
21826;BME280;11075;47.944;11.776;2024-03-02T00:16:22;93778.28;;;0.80;80.38
21826;BME280;11075;47.944;11.776;2024-03-02T00:18:50;93778.31;;;1.05;79.06
21826;BME280;11075;47.944;11.776;2024-03-02T00:21:18;93775.63;;;0.65;82.72
21826;BME280;11075;47.944;11.776;2024-03-02T00:23:48;93786.63;;;-0.01;88.82
21826;BME280;11075;47.944;11.776;2024-03-02T00:26:15;93776.97;;;0.10;88.48
21826;BME280;11075;47.944;11.776;2024-03-02T00:28:42;93778.09;;;0.29;87.61
21826;BME280;11075;47.944;11.776;2024-03-02T00:31:12;93770.38;;;0.70;83.03
21826;BME280;11075;47.944;11.776;2024-03-02T00:36:07;93761.75;;;1.05;78.86
21826;BME280;11075;47.944;11.776;2024-03-02T00:38:47;93772.81;;;0.19;85.93
21826;BME280;11075;47.944;11.776;2024-03-02T00:41:21;93769.03;;;-0.05;90.89
21826;BME280;11075;47.944;11.776;2024-03-02T00:44:05;93769.09;;;0.10;89.05
21826;BME280;11075;47.944;11.776;2024-03-02T00:46:37;93762.69;;;-0.14;90.09
21826;BME280;11075;47.944;11.776;2024-03-02T00:49:26;93755.47;;;0.13;88.92
21826;BME280;11075;47.944;11.776;2024-03-02T00:51:54;93761.00;;;-0.31;91.66
21826;BME280;11075;47.944;11.776;2024-03-02T00:54:23;93748.00;;;0.52;90.37
21826;BME280;11075;47.944;11.776;2024-03-02T00:56:51;93747.91;;;0.27;91.49
21826;BME280;11075;47.944;11.776;2024-03-02T00:59:18;93743.63;;;0.93;85.10
21826;BME280;11075;47.944;11.776;2024-03-02T01:01:45;93745.97;;;0.85;85.15
21826;BME280;11075;47.944;11.776;2024-03-02T01:04:12;93738.63;;;1.02;86.38
21826;BME280;11075;47.944;11.776;2024-03-02T01:06:42;93732.03;;;0.69;90.37
21826;BME280;11075;47.944;11.776;2024-03-02T01:09:09;93731.00;;;0.75;90.14
21826;BME280;11075;47.944;11.776;2024-03-02T01:11:36;93731.75;;;0.55;89.68
21826;BME280;11075;47.944;11.776;2024-03-02T01:14:03;93726.75;;;0.54;91.70
21826;BME280;11075;47.944;11.776;2024-03-02T01:16:30;93726.25;;;0.62;90.86
21826;BME280;11075;47.944;11.776;2024-03-02T01:18:57;93716.78;;;0.66;91.31
21826;BME280;11075;47.944;11.776;2024-03-02T01:21:24;93716.50;;;0.52;90.78
21826;BME280;11075;47.944;11.776;2024-03-02T01:23:51;93709.97;;;0.75;90.10
21826;BME280;11075;47.944;11.776;2024-03-02T01:26:18;93715.25;;;0.95;89.25
21826;BME280;11075;47.944;11.776;2024-03-02T01:28:44;93718.34;;;0.52;92.17
21826;BME280;11075;47.944;11.776;2024-03-02T01:31:11;93718.41;;;0.92;90.71
21826;BME280;11075;47.944;11.776;2024-03-02T01:33:38;93717.88;;;1.05;88.34
21826;BME280;11075;47.944;11.776;2024-03-02T01:36:05;93712.63;;;1.26;88.01
21826;BME280;11075;47.944;11.776;2024-03-02T01:38:32;93713.94;;;1.28;87.71
21826;BME280;11075;47.944;11.776;2024-03-02T01:40:58;93718.38;;;0.67;92.29
21826;BME280;11075;47.944;11.776;2024-03-02T01:43:25;93715.00;;;0.92;94.93
21826;BME280;11075;47.944;11.776;2024-03-02T01:45:52;93717.88;;;0.95;92.84
21826;BME280;11075;47.944;11.776;2024-03-02T01:48:21;93714.69;;;0.58;96.90
21826;BME280;11075;47.944;11.776;2024-03-02T01:50:48;93714.72;;;0.78;96.42
21826;BME280;11075;47.944;11.776;2024-03-02T01:53:15;93711.31;;;1.23;93.36
21826;BME280;11075;47.944;11.776;2024-03-02T01:55:41;93712.59;;;0.70;97.26
21826;BME280;11075;47.944;11.776;2024-03-02T01:58:08;93713.94;;;0.93;94.95
21826;BME280;11075;47.944;11.776;2024-03-02T02:00:35;93709.41;;;1.54;91.88
21826;BME280;11075;47.944;11.776;2024-03-02T02:03:02;93713.78;;;1.94;87.18
21826;BME280;11075;47.944;11.776;2024-03-02T02:05:29;93712.03;;;1.59;88.46
21826;BME280;11075;47.944;11.776;2024-03-02T02:07:58;93709.78;;;2.07;84.65
21826;BME280;11075;47.944;11.776;2024-03-02T02:10:25;93713.03;;;1.84;85.97
21826;BME280;11075;47.944;11.776;2024-03-02T02:12:52;93709.44;;;1.49;89.54
21826;BME280;11075;47.944;11.776;2024-03-02T02:15:26;93708.88;;;1.62;88.40
21826;BME280;11075;47.944;11.776;2024-03-02T02:17:54;93706.22;;;1.73;87.52
21826;BME280;11075;47.944;11.776;2024-03-02T02:20:22;93701.75;;;1.78;87.17
21826;BME280;11075;47.944;11.776;2024-03-02T02:22:56;93698.63;;;1.66;87.15
21826;BME280;11075;47.944;11.776;2024-03-02T02:25:23;93697.25;;;1.84;86.41
21826;BME280;11075;47.944;11.776;2024-03-02T02:27:50;93701.47;;;1.80;84.48
21826;BME280;11075;47.944;11.776;2024-03-02T02:30:28;93698.22;;;2.03;83.08
21826;BME280;11075;47.944;11.776;2024-03-02T02:32:56;93692.44;;;2.06;81.20
21826;BME280;11075;47.944;11.776;2024-03-02T02:35:23;93690.91;;;1.90;83.84
21826;BME280;11075;47.944;11.776;2024-03-02T02:37:54;93681.47;;;1.79;84.94
21826;BME280;11075;47.944;11.776;2024-03-02T02:40:22;93686.09;;;2.12;83.44
21826;BME280;11075;47.944;11.776;2024-03-02T02:42:49;93678.97;;;2.13;83.06
21826;BME280;11075;47.944;11.776;2024-03-02T02:45:16;93686.88;;;1.18;89.87
21826;BME280;11075;47.944;11.776;2024-03-02T02:47:44;93685.63;;;2.00;84.82
21826;BME280;11075;47.944;11.776;2024-03-02T02:50:11;93685.38;;;1.96;85.58
21826;BME280;11075;47.944;11.776;2024-03-02T02:52:40;93679.59;;;1.89;84.05
21826;BME280;11075;47.944;11.776;2024-03-02T02:55:09;93677.22;;;1.93;84.03
21826;BME280;11075;47.944;11.776;2024-03-02T02:57:37;93676.16;;;1.99;84.39
21826;BME280;11075;47.944;11.776;2024-03-02T03:00:11;93677.41;;;0.71;94.59
21826;BME280;11075;47.944;11.776;2024-03-02T03:02:42;93670.03;;;1.19;91.10
21826;BME280;11075;47.944;11.776;2024-03-02T03:05:10;93666.56;;;1.54;91.01
21826;BME280;11075;47.944;11.776;2024-03-02T03:07:39;93675.84;;;1.00;94.27
21826;BME280;11075;47.944;11.776;2024-03-02T03:10:07;93668.41;;;1.53;90.68
21826;BME280;11075;47.944;11.776;2024-03-02T03:12:34;93673.13;;;1.56;87.83
21826;BME280;11075;47.944;11.776;2024-03-02T03:15:02;93670.31;;;1.07;93.81
21826;BME280;11075;47.944;11.776;2024-03-02T03:17:29;93668.91;;;1.65;88.21
21826;BME280;11075;47.944;11.776;2024-03-02T03:19:56;93663.75;;;1.04;92.41
21826;BME280;11075;47.944;11.776;2024-03-02T03:22:23;93681.34;;;0.63;95.58
21826;BME280;11075;47.944;11.776;2024-03-02T03:24:50;93679.50;;;1.20;91.84
21826;BME280;11075;47.944;11.776;2024-03-02T03:27:17;93680.81;;;0.56;95.26
21826;BME280;11075;47.944;11.776;2024-03-02T03:29:43;93679.78;;;1.08;91.14
21826;BME280;11075;47.944;11.776;2024-03-02T03:32:10;93682.13;;;1.15;89.20
21826;BME280;11075;47.944;11.776;2024-03-02T03:34:37;93686.16;;;1.92;84.33
21826;BME280;11075;47.944;11.776;2024-03-02T03:37:04;93684.59;;;1.91;82.38
21826;BME280;11075;47.944;11.776;2024-03-02T03:39:31;93687.06;;;1.62;85.82
21826;BME280;11075;47.944;11.776;2024-03-02T03:41:58;93696.34;;;1.14;89.35
21826;BME280;11075;47.944;11.776;2024-03-02T03:44:25;93696.59;;;1.12;91.58
21826;BME280;11075;47.944;11.776;2024-03-02T03:46:51;93704.47;;;1.32;89.06
21826;BME280;11075;47.944;11.776;2024-03-02T03:49:18;93705.22;;;1.53;87.51
21826;BME280;11075;47.944;11.776;2024-03-02T03:51:45;93700.81;;;1.08;89.66
21826;BME280;11075;47.944;11.776;2024-03-02T03:54:12;93704.22;;;1.03;89.43
21826;BME280;11075;47.944;11.776;2024-03-02T03:56:39;93709.72;;;0.92;92.23
21826;BME280;11075;47.944;11.776;2024-03-02T03:59:06;93706.59;;;1.00;92.08
21826;BME280;11075;47.944;11.776;2024-03-02T04:01:32;93709.47;;;0.88;91.61
21826;BME280;11075;47.944;11.776;2024-03-02T04:04:00;93708.16;;;1.06;92.05
21826;BME280;11075;47.944;11.776;2024-03-02T04:06:30;93713.69;;;1.10;89.80
21826;BME280;11075;47.944;11.776;2024-03-02T04:08:57;93718.66;;;1.31;87.74
21826;BME280;11075;47.944;11.776;2024-03-02T04:11:24;93710.78;;;0.76;92.99
21826;BME280;11075;47.944;11.776;2024-03-02T04:13:51;93710.50;;;0.82;92.98
21826;BME280;11075;47.944;11.776;2024-03-02T04:16:19;93718.91;;;0.69;94.09
21826;BME280;11075;47.944;11.776;2024-03-02T04:18:45;93721.03;;;1.13;91.34
21826;BME280;11075;47.944;11.776;2024-03-02T04:21:12;93722.56;;;1.59;87.14
21826;BME280;11075;47.944;11.776;2024-03-02T04:23:39;93724.72;;;1.22;87.25
21826;BME280;11075;47.944;11.776;2024-03-02T04:26:06;93725.47;;;1.58;84.70
21826;BME280;11075;47.944;11.776;2024-03-02T04:28:33;93721.50;;;1.60;84.64
21826;BME280;11075;47.944;11.776;2024-03-02T04:30:59;93720.50;;;1.36;84.62
21826;BME280;11075;47.944;11.776;2024-03-02T04:33:26;93712.53;;;1.77;82.71
21826;BME280;11075;47.944;11.776;2024-03-02T04:35:53;93723.91;;;1.31;84.27
21826;BME280;11075;47.944;11.776;2024-03-02T04:38:20;93726.28;;;0.97;88.14
21826;BME280;11075;47.944;11.776;2024-03-02T04:40:47;93725.75;;;1.26;86.52
21826;BME280;11075;47.944;11.776;2024-03-02T04:43:14;93729.66;;;1.59;82.54
21826;BME280;11075;47.944;11.776;2024-03-02T04:45:43;93733.38;;;1.17;86.22
21826;BME280;11075;47.944;11.776;2024-03-02T04:48:10;93724.16;;;1.40;84.90
21826;BME280;11075;47.944;11.776;2024-03-02T04:50:36;93723.38;;;1.45;82.16
21826;BME280;11075;47.944;11.776;2024-03-02T04:53:03;93727.19;;;2.03;79.60
21826;BME280;11075;47.944;11.776;2024-03-02T04:55:30;93731.53;;;1.23;83.69
21826;BME280;11075;47.944;11.776;2024-03-02T04:58:06;93728.63;;;1.45;84.20
21826;BME280;11075;47.944;11.776;2024-03-02T05:00:34;93729.25;;;2.11;77.59
21826;BME280;11075;47.944;11.776;2024-03-02T05:03:02;93725.59;;;2.07;78.20
21826;BME280;11075;47.944;11.776;2024-03-02T05:05:29;93731.97;;;1.81;78.95
21826;BME280;11075;47.944;11.776;2024-03-02T05:07:56;93735.19;;;1.62;81.63
21826;BME280;11075;47.944;11.776;2024-03-02T05:10:23;93737.84;;;0.96;87.96
21826;BME280;11075;47.944;11.776;2024-03-02T05:12:51;93733.88;;;1.45;84.94
21826;BME280;11075;47.944;11.776;2024-03-02T05:15:24;93738.09;;;1.46;86.04
21826;BME280;11075;47.944;11.776;2024-03-02T05:17:51;93741.38;;;2.07;80.29
21826;BME280;11075;47.944;11.776;2024-03-02T05:20:18;93744.03;;;2.02;79.97
21826;BME280;11075;47.944;11.776;2024-03-02T05:22:45;93745.31;;;2.10;79.27
21826;BME280;11075;47.944;11.776;2024-03-02T05:25:12;93745.59;;;2.03;79.53
21826;BME280;11075;47.944;11.776;2024-03-02T05:27:39;93750.03;;;2.23;76.75
21826;BME280;11075;47.944;11.776;2024-03-02T05:30:06;93749.78;;;2.14;77.68
21826;BME280;11075;47.944;11.776;2024-03-02T05:32:33;93753.31;;;1.79;81.29
21826;BME280;11075;47.944;11.776;2024-03-02T05:35:00;93751.97;;;1.87;81.04
21826;BME280;11075;47.944;11.776;2024-03-02T05:37:27;93758.31;;;1.65;82.94
21826;BME280;11075;47.944;11.776;2024-03-02T05:39:55;93752.16;;;2.11;79.64
21826;BME280;11075;47.944;11.776;2024-03-02T05:42:22;93762.22;;;1.93;80.09
21826;BME280;11075;47.944;11.776;2024-03-02T05:44:48;93765.69;;;1.58;82.97
21826;BME280;11075;47.944;11.776;2024-03-02T05:47:15;93759.00;;;2.22;77.95
21826;BME280;11075;47.944;11.776;2024-03-02T05:49:42;93764.75;;;2.19;77.12
21826;BME280;11075;47.944;11.776;2024-03-02T05:52:09;93769.34;;;1.73;83.99
21826;BME280;11075;47.944;11.776;2024-03-02T05:54:37;93765.16;;;1.71;81.67
21826;BME280;11075;47.944;11.776;2024-03-02T05:57:05;93765.03;;;2.22;78.02
21826;BME280;11075;47.944;11.776;2024-03-02T05:59:53;93766.34;;;2.30;76.63
21826;BME280;11075;47.944;11.776;2024-03-02T06:02:20;93771.41;;;2.01;78.72
21826;BME280;11075;47.944;11.776;2024-03-02T06:04:47;93775.69;;;1.00;87.43
21826;BME280;11075;47.944;11.776;2024-03-02T06:07:14;93781.41;;;1.94;80.62
21826;BME280;11075;47.944;11.776;2024-03-02T06:09:41;93770.38;;;1.92;79.81
21826;BME280;11075;47.944;11.776;2024-03-02T06:12:07;93776.09;;;2.14;78.73
21826;BME280;11075;47.944;11.776;2024-03-02T06:14:34;93775.03;;;2.15;78.29
21826;BME280;11075;47.944;11.776;2024-03-02T06:17:01;93784.03;;;1.99;79.02
21826;BME280;11075;47.944;11.776;2024-03-02T06:19:28;93785.16;;;1.37;83.65
21826;BME280;11075;47.944;11.776;2024-03-02T06:21:55;93780.41;;;1.80;80.69
21826;BME280;11075;47.944;11.776;2024-03-02T06:24:22;93779.06;;;1.92;80.27
21826;BME280;11075;47.944;11.776;2024-03-02T06:26:48;93781.22;;;1.50;83.75
21826;BME280;11075;47.944;11.776;2024-03-02T06:29:15;93780.53;;;2.34;78.03
21826;BME280;11075;47.944;11.776;2024-03-02T06:31:42;93778.47;;;2.16;79.79
21826;BME280;11075;47.944;11.776;2024-03-02T06:34:09;93770.47;;;2.46;76.84
21826;BME280;11075;47.944;11.776;2024-03-02T06:36:36;93773.56;;;1.63;82.91
21826;BME280;11075;47.944;11.776;2024-03-02T06:39:03;93773.31;;;2.60;76.11
21826;BME280;11075;47.944;11.776;2024-03-02T06:41:30;93783.63;;;2.51;76.48
21826;BME280;11075;47.944;11.776;2024-03-02T06:43:57;93777.28;;;2.57;75.62
21826;BME280;11075;47.944;11.776;2024-03-02T06:46:27;93773.97;;;2.31;77.87
21826;BME280;11075;47.944;11.776;2024-03-02T06:48:53;93774.25;;;2.15;80.83
21826;BME280;11075;47.944;11.776;2024-03-02T06:51:20;93774.28;;;2.20;80.56
21826;BME280;11075;47.944;11.776;2024-03-02T06:53:47;93772.81;;;2.58;76.88
21826;BME280;11075;47.944;11.776;2024-03-02T06:56:14;93767.47;;;2.73;75.98
21826;BME280;11075;47.944;11.776;2024-03-02T06:58:41;93770.88;;;2.74;75.07
21826;BME280;11075;47.944;11.776;2024-03-02T07:01:09;93769.44;;;2.42;78.73
21826;BME280;11075;47.944;11.776;2024-03-02T07:03:36;93772.88;;;2.38;79.73
21826;BME280;11075;47.944;11.776;2024-03-02T07:06:03;93766.59;;;2.88;75.86
21826;BME280;11075;47.944;11.776;2024-03-02T07:08:31;93772.34;;;2.41;78.44
21826;BME280;11075;47.944;11.776;2024-03-02T07:10:58;93770.97;;;2.53;78.52
21826;BME280;11075;47.944;11.776;2024-03-02T07:13:25;93774.66;;;2.52;78.57
21826;BME280;11075;47.944;11.776;2024-03-02T07:15:52;93774.38;;;2.59;78.48
21826;BME280;11075;47.944;11.776;2024-03-02T07:18:31;93766.25;;;2.99;75.84
21826;BME280;11075;47.944;11.776;2024-03-02T07:20:58;93772.84;;;2.97;77.42
21826;BME280;11075;47.944;11.776;2024-03-02T07:23:27;93765.34;;;3.14;76.67
21826;BME280;11075;47.944;11.776;2024-03-02T07:25:54;93766.31;;;2.35;80.37
21826;BME280;11075;47.944;11.776;2024-03-02T07:28:27;93770.28;;;2.87;79.45
21826;BME280;11075;47.944;11.776;2024-03-02T07:31:00;93768.47;;;3.55;73.69
21826;BME280;11075;47.944;11.776;2024-03-02T07:33:28;93772.59;;;3.32;75.38
21826;BME280;11075;47.944;11.776;2024-03-02T07:35:55;93769.16;;;3.66;74.34
21826;BME280;11075;47.944;11.776;2024-03-02T07:38:30;93761.69;;;3.10;77.49
21826;BME280;11075;47.944;11.776;2024-03-02T07:40:57;93769.84;;;3.82;74.03
21826;BME280;11075;47.944;11.776;2024-03-02T07:43:24;93770.34;;;2.77;79.73
21826;BME280;11075;47.944;11.776;2024-03-02T07:45:51;93763.81;;;3.42;76.93
21826;BME280;11075;47.944;11.776;2024-03-02T07:48:18;93770.94;;;3.08;80.66
21826;BME280;11075;47.944;11.776;2024-03-02T07:50:45;93768.47;;;3.21;80.28
21826;BME280;11075;47.944;11.776;2024-03-02T07:53:12;93772.84;;;3.36;78.42
21826;BME280;11075;47.944;11.776;2024-03-02T07:55:39;93779.19;;;3.64;78.17
21826;BME280;11075;47.944;11.776;2024-03-02T07:58:06;93782.13;;;3.62;77.81
21826;BME280;11075;47.944;11.776;2024-03-02T08:00:33;93779.09;;;3.74;77.52
21826;BME280;11075;47.944;11.776;2024-03-02T08:03:01;93777.47;;;3.83;75.58
21826;BME280;11075;47.944;11.776;2024-03-02T08:05:28;93781.22;;;4.06;74.94
21826;BME280;11075;47.944;11.776;2024-03-02T08:07:54;93788.78;;;3.55;79.03
21826;BME280;11075;47.944;11.776;2024-03-02T08:10:21;93789.38;;;3.76;76.89
21826;BME280;11075;47.944;11.776;2024-03-02T08:12:48;93790.97;;;3.43;79.62
21826;BME280;11075;47.944;11.776;2024-03-02T08:15:15;93790.97;;;3.77;78.43
21826;BME280;11075;47.944;11.776;2024-03-02T08:17:42;93787.31;;;3.39;81.04
21826;BME280;11075;47.944;11.776;2024-03-02T08:20:15;93788.94;;;3.35;83.95
21826;BME280;11075;47.944;11.776;2024-03-02T08:22:42;93792.13;;;3.31;80.11
21826;BME280;11075;47.944;11.776;2024-03-02T08:25:09;93794.31;;;3.87;79.37
21826;BME280;11075;47.944;11.776;2024-03-02T08:27:37;93802.38;;;5.34;69.49
21826;BME280;11075;47.944;11.776;2024-03-02T08:30:06;93791.63;;;5.77;65.13
21826;BME280;11075;47.944;11.776;2024-03-02T08:32:34;93806.28;;;3.75;77.16
21826;BME280;11075;47.944;11.776;2024-03-02T08:35:01;93802.63;;;3.71;77.04
21826;BME280;11075;47.944;11.776;2024-03-02T08:37:28;93799.19;;;3.70;75.48
21826;BME280;11075;47.944;11.776;2024-03-02T08:39:55;93808.81;;;3.90;76.33
21826;BME280;11075;47.944;11.776;2024-03-02T08:42:22;93813.22;;;3.31;78.89
21826;BME280;11075;47.944;11.776;2024-03-02T08:44:49;93806.09;;;4.00;77.09
21826;BME280;11075;47.944;11.776;2024-03-02T08:47:16;93805.31;;;3.31;79.68
21826;BME280;11075;47.944;11.776;2024-03-02T08:49:43;93809.69;;;4.09;74.79
21826;BME280;11075;47.944;11.776;2024-03-02T08:52:10;93812.91;;;4.97;71.38
21826;BME280;11075;47.944;11.776;2024-03-02T08:54:37;93807.22;;;6.25;64.79
21826;BME280;11075;47.944;11.776;2024-03-02T08:57:05;93797.22;;;6.21;64.95
21826;BME280;11075;47.944;11.776;2024-03-02T08:59:32;93805.97;;;5.01;72.81
21826;BME280;11075;47.944;11.776;2024-03-02T09:01:59;93810.72;;;5.41;70.57
21826;BME280;11075;47.944;11.776;2024-03-02T09:04:27;93807.81;;;5.75;68.13
21826;BME280;11075;47.944;11.776;2024-03-02T09:07:00;93801.63;;;6.26;65.27
21826;BME280;11075;47.944;11.776;2024-03-02T09:09:27;93803.88;;;6.05;65.53
21826;BME280;11075;47.944;11.776;2024-03-02T09:11:54;93811.38;;;6.99;62.40
21826;BME280;11075;47.944;11.776;2024-03-02T09:14:22;93799.59;;;7.64;59.64
21826;BME280;11075;47.944;11.776;2024-03-02T09:16:48;93795.75;;;6.98;61.41
21826;BME280;11075;47.944;11.776;2024-03-02T09:19:15;93803.09;;;8.26;57.05
21826;BME280;11075;47.944;11.776;2024-03-02T09:21:43;93798.69;;;8.53;56.36
21826;BME280;11075;47.944;11.776;2024-03-02T09:24:10;93801.66;;;7.67;58.48
21826;BME280;11075;47.944;11.776;2024-03-02T09:26:39;93797.78;;;7.14;56.60
21826;BME280;11075;47.944;11.776;2024-03-02T09:29:06;93787.41;;;8.16;60.66
21826;BME280;11075;47.944;11.776;2024-03-02T09:31:33;93792.06;;;8.41;53.64
21826;BME280;11075;47.944;11.776;2024-03-02T09:34:05;93787.13;;;9.14;52.26
21826;BME280;11075;47.944;11.776;2024-03-02T09:36:32;93789.59;;;8.93;53.85
21826;BME280;11075;47.944;11.776;2024-03-02T09:38:59;93782.91;;;9.65;53.15
21826;BME280;11075;47.944;11.776;2024-03-02T09:41:26;93780.56;;;9.55;54.33
21826;BME280;11075;47.944;11.776;2024-03-02T09:43:54;93773.34;;;10.45;50.89
21826;BME280;11075;47.944;11.776;2024-03-02T09:46:20;93782.13;;;9.21;52.49
21826;BME280;11075;47.944;11.776;2024-03-02T09:48:47;93768.59;;;10.89;50.86
21826;BME280;11075;47.944;11.776;2024-03-02T09:51:15;93763.69;;;11.41;47.73
21826;BME280;11075;47.944;11.776;2024-03-02T09:53:42;93762.78;;;10.11;49.23
21826;BME280;11075;47.944;11.776;2024-03-02T09:56:09;93758.53;;;10.65;50.49
21826;BME280;11075;47.944;11.776;2024-03-02T09:58:36;93760.41;;;10.94;49.79
21826;BME280;11075;47.944;11.776;2024-03-02T10:01:06;93755.91;;;10.86;48.43
21826;BME280;11075;47.944;11.776;2024-03-02T10:03:33;93767.81;;;8.83;53.81
21826;BME280;11075;47.944;11.776;2024-03-02T10:06:32;93762.38;;;11.68;48.43
21826;BME280;11075;47.944;11.776;2024-03-02T10:08:59;93757.19;;;10.80;48.61
21826;BME280;11075;47.944;11.776;2024-03-02T10:11:30;93755.47;;;11.46;49.47
21826;BME280;11075;47.944;11.776;2024-03-02T10:14:12;93759.91;;;10.71;49.94
21826;BME280;11075;47.944;11.776;2024-03-02T10:16:41;93755.13;;;10.47;48.42
21826;BME280;11075;47.944;11.776;2024-03-02T10:19:23;93756.22;;;12.33;45.83
21826;BME280;11075;47.944;11.776;2024-03-02T10:21:52;93751.81;;;12.05;46.26
21826;BME280;11075;47.944;11.776;2024-03-02T10:24:21;93755.03;;;9.71;49.38
21826;BME280;11075;47.944;11.776;2024-03-02T10:26:48;93744.13;;;12.60;45.51
21826;BME280;11075;47.944;11.776;2024-03-02T10:29:16;93742.84;;;11.14;46.85
21826;BME280;11075;47.944;11.776;2024-03-02T10:31:46;93740.88;;;11.23;47.61
21826;BME280;11075;47.944;11.776;2024-03-02T10:34:14;93741.41;;;10.57;47.54
21826;BME280;11075;47.944;11.776;2024-03-02T10:36:43;93747.84;;;12.35;43.95
21826;BME280;11075;47.944;11.776;2024-03-02T10:39:12;93732.53;;;10.83;46.81
21826;BME280;11075;47.944;11.776;2024-03-02T10:41:40;93741.00;;;11.26;46.14
21826;BME280;11075;47.944;11.776;2024-03-02T10:44:09;93733.13;;;11.09;47.37
21826;BME280;11075;47.944;11.776;2024-03-02T10:46:37;93730.72;;;10.95;46.91
21826;BME280;11075;47.944;11.776;2024-03-02T10:49:05;93732.78;;;8.41;48.89
21826;BME280;11075;47.944;11.776;2024-03-02T10:51:35;93726.53;;;9.11;49.83
21826;BME280;11075;47.944;11.776;2024-03-02T10:54:04;93718.50;;;9.63;49.02
21826;BME280;11075;47.944;11.776;2024-03-02T10:56:32;93713.03;;;9.59;49.45
21826;BME280;11075;47.944;11.776;2024-03-02T10:59:03;93714.28;;;9.62;49.07
21826;BME280;11075;47.944;11.776;2024-03-02T11:01:32;93711.69;;;10.38;49.37
21826;BME280;11075;47.944;11.776;2024-03-02T11:04:02;93708.50;;;10.53;48.01
21826;BME280;11075;47.944;11.776;2024-03-02T11:06:32;93707.91;;;10.77;47.93
21826;BME280;11075;47.944;11.776;2024-03-02T11:09:05;93695.72;;;10.67;47.85
21826;BME280;11075;47.944;11.776;2024-03-02T11:11:42;93696.00;;;10.07;46.50
21826;BME280;11075;47.944;11.776;2024-03-02T11:14:17;93706.75;;;8.21;50.65
21826;BME280;11075;47.944;11.776;2024-03-02T11:16:46;93689.09;;;10.44;48.41
21826;BME280;11075;47.944;11.776;2024-03-02T11:19:15;93689.72;;;9.13;50.66
21826;BME280;11075;47.944;11.776;2024-03-02T11:21:44;93682.78;;;11.74;46.90
21826;BME280;11075;47.944;11.776;2024-03-02T11:26:47;93676.75;;;10.60;47.68
21826;BME280;11075;47.944;11.776;2024-03-02T11:32:04;93661.31;;;10.45;48.08
21826;BME280;11075;47.944;11.776;2024-03-02T11:34:32;93668.22;;;11.50;45.79
21826;BME280;11075;47.944;11.776;2024-03-02T11:37:03;93666.03;;;9.46;48.83
21826;BME280;11075;47.944;11.776;2024-03-02T11:39:31;93662.38;;;9.85;47.54
21826;BME280;11075;47.944;11.776;2024-03-02T11:41:59;93661.63;;;11.48;45.63
21826;BME280;11075;47.944;11.776;2024-03-02T11:44:27;93662.53;;;11.85;44.65
21826;BME280;11075;47.944;11.776;2024-03-02T11:47:02;93665.78;;;12.88;42.72
21826;BME280;11075;47.944;11.776;2024-03-02T11:49:51;93651.69;;;13.43;42.33
21826;BME280;11075;47.944;11.776;2024-03-02T11:52:18;93643.78;;;11.07;42.03
21826;BME280;11075;47.944;11.776;2024-03-02T11:54:46;93636.38;;;12.03;42.56
21826;BME280;11075;47.944;11.776;2024-03-02T11:57:15;93634.34;;;11.75;42.02
21826;BME280;11075;47.944;11.776;2024-03-02T11:59:43;93626.69;;;11.86;42.98
21826;BME280;11075;47.944;11.776;2024-03-02T12:02:18;93621.75;;;11.63;43.07
21826;BME280;11075;47.944;11.776;2024-03-02T12:04:46;93624.78;;;12.11;41.93
21826;BME280;11075;47.944;11.776;2024-03-02T12:07:24;93611.59;;;10.70;43.76
21826;BME280;11075;47.944;11.776;2024-03-02T12:10:00;93630.59;;;12.37;43.39
21826;BME280;11075;47.944;11.776;2024-03-02T12:12:28;93616.53;;;13.05;40.95
21826;BME280;11075;47.944;11.776;2024-03-02T12:14:55;93615.00;;;12.15;41.42
21826;BME280;11075;47.944;11.776;2024-03-02T12:17:22;93613.94;;;11.58;41.77
21826;BME280;11075;47.944;11.776;2024-03-02T12:19:49;93617.88;;;12.10;42.30
21826;BME280;11075;47.944;11.776;2024-03-02T12:22:16;93598.06;;;11.86;43.40
21826;BME280;11075;47.944;11.776;2024-03-02T12:24:44;93597.03;;;10.08;45.02
21826;BME280;11075;47.944;11.776;2024-03-02T12:27:16;93586.47;;;11.94;43.57
21826;BME280;11075;47.944;11.776;2024-03-02T12:29:50;93599.94;;;12.22;43.13
21826;BME280;11075;47.944;11.776;2024-03-02T12:32:18;93593.19;;;9.97;45.40
21826;BME280;11075;47.944;11.776;2024-03-02T12:34:46;93596.50;;;11.85;42.67
21826;BME280;11075;47.944;11.776;2024-03-02T12:37:13;93602.63;;;11.41;43.00
21826;BME280;11075;47.944;11.776;2024-03-02T12:39:44;93585.88;;;10.86;44.13
21826;BME280;11075;47.944;11.776;2024-03-02T12:42:11;93581.66;;;12.37;42.47
21826;BME280;11075;47.944;11.776;2024-03-02T12:44:39;93594.56;;;11.61;42.39
21826;BME280;11075;47.944;11.776;2024-03-02T12:47:06;93580.75;;;12.57;40.96
21826;BME280;11075;47.944;11.776;2024-03-02T12:49:34;93569.19;;;10.89;42.19
21826;BME280;11075;47.944;11.776;2024-03-02T12:52:01;93549.75;;;9.67;44.50
21826;BME280;11075;47.944;11.776;2024-03-02T12:54:29;93569.03;;;11.07;44.41
21826;BME280;11075;47.944;11.776;2024-03-02T12:56:56;93561.75;;;11.97;42.55
21826;BME280;11075;47.944;11.776;2024-03-02T12:59:24;93557.34;;;11.44;43.87
21826;BME280;11075;47.944;11.776;2024-03-02T13:01:54;93546.78;;;12.33;41.86
21826;BME280;11075;47.944;11.776;2024-03-02T13:04:24;93550.59;;;10.81;45.26
21826;BME280;11075;47.944;11.776;2024-03-02T13:06:55;93548.00;;;10.72;45.63
21826;BME280;11075;47.944;11.776;2024-03-02T13:09:26;93533.78;;;11.13;44.94
21826;BME280;11075;47.944;11.776;2024-03-02T13:11:54;93530.97;;;12.16;43.33